createdAt,value
2019-04-05T00:04:05.751Z,89.25
2019-04-05T00:09:11.831Z,89.22
2019-04-05T00:14:19.837Z,90.73
2019-04-05T00:19:31.824Z,90.25
2019-04-05T00:24:39.645Z,90.84
2019-04-05T00:29:45.495Z,91.09
2019-04-05T00:34:56.870Z,91.20
2019-04-05T00:40:26.340Z,92.13
2019-04-05T00:45:35.517Z,92.55
2019-04-05T00:50:41.303Z,92.62
2019-04-05T00:55:48.653Z,94.22
2019-04-05T01:00:54.483Z,94.29
2019-04-05T01:06:00.301Z,96.53
2019-04-05T01:11:06.257Z,97.29
2019-04-05T01:16:13.653Z,96.32
2019-04-05T01:21:22.502Z,97.35
2019-04-05T01:26:29.485Z,97.85
2019-04-05T01:31:35.371Z,99.39
2019-04-05T01:36:41.342Z,98.58
2019-04-05T01:41:47.879Z,99.91
2019-04-05T01:46:53.791Z,99.40
2019-04-05T01:52:00.913Z,99.50
2019-04-05T01:57:06.683Z,100.00
2019-04-05T02:02:12.474Z,100.00
2019-04-05T02:07:18.205Z,100.00
2019-04-05T02:12:23.972Z,100.00
2019-04-05T02:17:29.730Z,100.00
2019-04-05T02:22:35.500Z,100.00
2019-04-05T02:27:41.288Z,100.00
2019-04-05T02:32:47.152Z,100.00
2019-04-05T02:37:53.018Z,100.00
2019-04-05T02:43:01.253Z,100.00
2019-04-05T02:48:09.944Z,100.00
2019-04-05T02:53:18.902Z,100.00
2019-04-05T02:58:25.268Z,100.00
2019-04-05T03:03:31.274Z,100.00
2019-04-05T03:08:39.449Z,100.00
2019-04-05T03:13:48.106Z,100.00
2019-04-05T03:18:59.654Z,100.00
2019-04-05T03:24:06.232Z,100.00
2019-04-05T03:29:12.831Z,100.00
2019-04-05T03:34:18.733Z,100.00
2019-04-05T03:39:25.174Z,100.00
2019-04-05T03:44:31.081Z,100.00
2019-04-05T03:49:36.978Z,100.00
2019-04-05T03:54:42.851Z,100.00
2019-04-05T03:59:48.634Z,100.00
2019-04-05T04:04:55.066Z,100.00
2019-04-05T04:10:00.924Z,100.00
2019-04-05T04:15:14.615Z,100.00
2019-04-05T04:20:38.560Z,100.00
2019-04-05T04:25:44.727Z,100.00
2019-04-05T04:30:50.845Z,100.00
2019-04-05T04:35:56.700Z,100.00
2019-04-05T04:41:03.211Z,100.00
2019-04-05T04:46:08.882Z,100.00
2019-04-05T04:51:14.798Z,100.00
2019-04-05T04:56:20.884Z,100.00
2019-04-05T05:01:26.690Z,100.00
2019-04-05T05:06:32.582Z,100.00
2019-04-05T05:11:38.457Z,100.00
2019-04-05T05:16:45.695Z,100.00
2019-04-05T05:21:51.563Z,100.00
2019-04-05T05:26:57.839Z,100.00
2019-04-05T05:32:04.190Z,100.00
2019-04-05T05:37:09.997Z,100.00
2019-04-05T05:42:15.954Z,100.00
2019-04-05T05:47:21.931Z,100.00
2019-04-05T05:52:27.974Z,100.00
2019-04-05T05:57:34.047Z,100.00
2019-04-05T06:02:40.365Z,100.00
2019-04-05T06:07:46.621Z,100.00
2019-04-05T06:12:52.569Z,100.00
2019-04-05T06:18:04.683Z,100.00
2019-04-05T06:23:06.149Z,100.00
2019-04-05T06:28:12.053Z,100.00
2019-04-05T06:33:30.696Z,99.84
2019-04-05T06:38:25.765Z,100.00
2019-04-05T06:43:31.655Z,100.00
2019-04-05T06:48:37.544Z,98.87
2019-04-05T06:53:43.522Z,97.86
2019-04-05T06:58:49.382Z,92.98
2019-04-05T07:03:55.443Z,91.01
2019-04-05T07:09:01.852Z,90.59
2019-04-05T07:14:08.367Z,88.13
2019-04-05T07:19:14.509Z,86.71
2019-04-05T07:24:20.590Z,84.84
2019-04-05T07:29:26.468Z,84.53
2019-04-05T07:34:32.326Z,81.71
2019-04-05T07:39:38.198Z,81.01
2019-04-05T07:44:44.113Z,80.59
2019-04-05T07:49:50.557Z,78.87
2019-04-05T07:54:56.625Z,78.58
2019-04-05T08:00:02.503Z,77.33
2019-04-05T08:05:09.033Z,74.66
2019-04-05T08:10:16.261Z,75.00
2019-04-05T08:15:22.126Z,73.69
2019-04-05T08:20:28.147Z,73.65
2019-04-05T08:25:34.008Z,71.59
2019-04-05T08:30:39.946Z,71.13
2019-04-05T08:35:45.965Z,70.26
2019-04-05T08:40:51.850Z,68.15
2019-04-05T08:45:57.916Z,67.83
2019-04-05T08:51:03.887Z,68.80
2019-04-05T08:56:09.643Z,68.87
2019-04-05T09:01:15.617Z,70.08
2019-04-05T09:06:22.623Z,69.84
2019-04-05T09:11:28.521Z,68.86
2019-04-05T09:16:34.504Z,68.00
2019-04-05T09:21:40.774Z,68.90
2019-04-05T09:26:46.822Z,68.30
2019-04-05T09:31:52.684Z,67.15
2019-04-05T09:36:58.558Z,66.73
2019-04-05T09:42:04.426Z,66.25
2019-04-05T09:47:10.624Z,65.42
2019-04-05T09:52:16.594Z,64.06
2019-04-05T09:57:22.346Z,64.44
2019-04-05T10:02:28.109Z,63.92
2019-04-05T10:07:33.900Z,63.38
2019-04-05T10:12:39.907Z,64.43
2019-04-05T10:17:45.843Z,63.63
2019-04-05T10:22:51.732Z,63.16
2019-04-05T10:27:57.726Z,64.55
2019-04-05T10:33:04.030Z,59.94
2019-04-05T10:38:10.032Z,58.49
2019-04-05T10:43:16.143Z,58.74
2019-04-05T10:48:22.126Z,58.83
2019-04-05T10:53:28.095Z,59.21
2019-04-05T10:58:34.101Z,58.47
2019-04-05T11:03:39.882Z,57.47
2019-04-05T11:08:45.657Z,56.73
2019-04-05T11:13:51.372Z,56.24
2019-04-05T11:18:57.194Z,55.44
2019-04-05T11:24:03.014Z,54.07
2019-04-05T11:29:08.783Z,54.20
2019-04-05T11:34:14.841Z,53.51
2019-04-05T11:39:21.209Z,53.54
2019-04-05T11:44:28.433Z,52.64
2019-04-05T11:49:37.255Z,53.14
2019-04-05T11:54:43.803Z,51.53
2019-04-05T11:59:50.623Z,51.46
2019-04-05T12:04:58.156Z,50.15
2019-04-05T12:10:04.824Z,49.80
2019-04-05T12:15:11.296Z,50.01
2019-04-05T12:20:17.868Z,50.61
2019-04-05T12:25:23.884Z,48.99
2019-04-05T12:30:29.764Z,49.14
2019-04-05T12:35:37.701Z,48.93
2019-04-05T12:40:44.223Z,48.95
2019-04-05T12:45:50.092Z,47.52
2019-04-05T12:51:01.476Z,46.96
2019-04-05T12:56:06.762Z,46.41
2019-04-05T13:01:12.950Z,46.67
2019-04-05T13:06:19.809Z,45.18
2019-04-05T13:11:27.034Z,44.62
2019-04-05T13:16:33.167Z,44.69
2019-04-05T13:21:39.015Z,45.05
2019-04-05T13:26:44.912Z,43.42
2019-04-05T13:31:50.889Z,43.97
2019-04-05T13:36:56.735Z,42.71
2019-04-05T13:42:02.704Z,42.71
2019-04-05T13:47:09.139Z,41.68
2019-04-05T13:52:15.025Z,41.88
2019-04-05T13:57:20.766Z,40.54
2019-04-05T14:02:26.739Z,40.26
2019-04-05T14:07:34.244Z,39.32
2019-04-05T14:12:41.004Z,40.08
2019-04-05T14:17:49.408Z,40.22
2019-04-05T14:22:55.439Z,38.11
2019-04-05T14:28:04.287Z,38.71
2019-04-05T14:33:10.143Z,39.00
2019-04-05T14:38:16.266Z,38.90
2019-04-05T14:43:22.174Z,39.65
2019-04-05T14:48:31.683Z,39.96
2019-04-05T14:53:36.674Z,39.36
2019-04-05T14:58:42.474Z,38.99
2019-04-05T15:03:48.828Z,38.83
2019-04-05T15:08:54.622Z,39.39
2019-04-05T15:14:02.228Z,38.86
2019-04-05T15:19:08.399Z,38.62
2019-04-05T15:24:16.807Z,39.01
2019-04-05T15:29:23.660Z,39.38
2019-04-05T15:34:30.589Z,38.56
2019-04-05T15:39:36.478Z,38.53
2019-04-05T15:44:42.699Z,38.71
2019-04-05T15:49:51.548Z,38.83
2019-04-05T15:55:08.737Z,39.04
2019-04-05T16:00:21.526Z,39.58
2019-04-05T16:05:27.351Z,38.64
2019-04-05T16:10:33.531Z,38.99
2019-04-05T16:15:39.407Z,38.50
2019-04-05T16:20:45.398Z,38.36
2019-04-05T16:25:51.350Z,37.67
2019-04-05T16:30:57.312Z,37.12
2019-04-05T16:36:03.345Z,38.31
2019-04-05T16:41:09.528Z,38.76
2019-04-05T16:46:15.947Z,39.65
2019-04-05T16:51:22.239Z,40.15
2019-04-05T16:56:28.616Z,40.46
2019-04-05T17:01:35.511Z,39.86
2019-04-05T17:06:41.696Z,40.06
2019-04-05T17:11:47.561Z,40.53
2019-04-05T17:16:53.542Z,40.58
2019-04-05T17:21:59.710Z,41.04
2019-04-05T17:27:05.584Z,41.63
2019-04-05T17:32:11.444Z,41.81
2019-04-05T17:37:18.441Z,42.30
2019-04-05T17:42:24.425Z,44.30
2019-04-05T17:47:30.405Z,47.51
2019-04-05T17:52:36.371Z,47.54
2019-04-05T17:57:43.425Z,50.03
2019-04-05T18:02:49.543Z,49.19
2019-04-05T18:07:55.725Z,54.50
2019-04-05T18:13:01.616Z,55.52
2019-04-05T18:18:07.612Z,54.33
2019-04-05T18:23:24.372Z,53.48
2019-04-05T18:28:21.188Z,53.43
2019-04-05T18:33:27.137Z,58.40
2019-04-05T18:38:33.147Z,58.88
2019-04-05T18:43:39.169Z,60.80
2019-04-05T18:48:45.107Z,60.68
2019-04-05T18:53:52.674Z,67.30
2019-04-05T18:58:58.776Z,64.11
2019-04-05T19:04:05.832Z,67.15
2019-04-05T19:09:12.224Z,65.72
2019-04-05T19:14:18.414Z,66.93
2019-04-05T19:19:24.450Z,67.31
2019-04-05T19:24:30.717Z,68.21
2019-04-05T19:29:36.640Z,69.40
2019-04-05T19:50:06.560Z,71.76
2019-04-05T19:55:12.637Z,70.79
2019-04-05T20:00:19.526Z,70.69
2019-04-05T20:05:25.730Z,70.90
2019-04-05T20:10:31.998Z,72.44
2019-04-05T20:15:37.841Z,72.07
2019-04-05T20:20:43.725Z,73.74
2019-04-05T20:25:49.513Z,72.59
2019-04-05T20:30:55.364Z,70.97
2019-04-05T20:36:01.222Z,71.89
2019-04-05T20:41:07.082Z,72.59
2019-04-05T20:46:13.244Z,74.06
2019-04-05T20:51:19.111Z,73.25
2019-04-05T20:56:24.906Z,73.60
2019-04-05T21:01:30.692Z,74.36
2019-04-05T21:06:36.466Z,73.93
2019-04-05T21:11:42.261Z,74.29
2019-04-05T21:16:48.075Z,74.52
2019-04-05T21:21:53.864Z,75.60
2019-04-05T21:26:59.654Z,74.56
2019-04-05T21:32:05.427Z,76.87
2019-04-05T21:37:11.205Z,77.92
2019-04-05T21:42:18.686Z,79.38
2019-04-05T21:47:24.481Z,80.81
2019-04-05T21:52:30.320Z,81.06
2019-04-05T21:57:37.348Z,83.37
2019-04-05T22:02:43.472Z,87.41
2019-04-05T22:07:51.453Z,89.08
2019-04-05T22:12:56.899Z,89.68
2019-04-05T22:18:02.716Z,88.75
2019-04-05T22:23:08.469Z,91.31
2019-04-05T22:28:14.263Z,91.05
2019-04-05T22:33:19.957Z,93.22
2019-04-05T22:38:25.804Z,94.85
2019-04-05T22:43:31.603Z,94.19
2019-04-05T22:48:37.394Z,94.66
2019-04-05T22:53:43.000Z,95.13
2019-04-05T22:58:48.779Z,96.34
2019-04-05T23:03:54.689Z,95.95
2019-04-05T23:09:00.480Z,96.27
2019-04-05T23:14:07.867Z,96.12
2019-04-05T23:19:13.653Z,95.98
2019-04-05T23:24:19.478Z,97.77
2019-04-05T23:29:25.178Z,96.36
2019-04-05T23:34:30.979Z,94.81
2019-04-05T23:39:36.832Z,94.12
2019-04-05T23:44:42.857Z,93.13
2019-04-05T23:49:48.779Z,92.53
2019-04-05T23:54:54.750Z,92.22
